Faa'a International Airport

Jump to: basic info | weather | frequencies | runways | comments

Related pages: nearby airports | nearby navaids | notams | map

Basic information (top)

Codes: PPT NTAA
Location: lon -17.553699, lat -149.606995, elev 5 ft / 2 m msl
Status: medium_airport
Scheduled airline service: yes
Links: Wikipedia Mobile

Weather (top)

Current conditions (rec'd 2014/04/25 03:00Z):

NTAA 250300Z 05010KT 9999 FEW020 BKN250 29/23 Q1010 NOSIG

Airport forecast (rec'd 2014/04/24 00:00Z):

TAF NTAA 242300Z 2500/2606 05016G26KT 9999 FEW023 SCT050 
      BECMG 2504/2506 05006KT 
      BECMG 2518/2520 05016KT

Frequencies (top)

Verify before use: may be inaccurate or out of date.

APP: 118.1 MHz (APP)
ATIS: 128.8 MHz (ATIS)
GND: 121.9 MHz (GND)
TWR: 118.1 MHz (TWR)

Runways (top)

04/22: 11,360 x 148 ft (3,463 x 45 m) — paved — lighted — threshold 04 displaced 1,120 ft (341 m) — threshold 22 displaced 390 ft (119 m)

Latest comments (top)

Fa'a'a international Airport: a great hot country [read]

More... (top)

See also NOTAMs and nearby airports and navaids, or visit the Faa'a International Airport page at the main OurAirports website..